createdAt,value
2019-05-29T00:02:20.493Z,100.00
2019-05-29T00:04:48.328Z,100.00
2019-05-29T00:07:16.830Z,99.57
2019-05-29T00:09:44.673Z,99.57
2019-05-29T00:12:18.427Z,100.00
2019-05-29T00:14:42.138Z,99.77
2019-05-29T00:17:10.423Z,99.83
2019-05-29T00:19:38.297Z,99.83
2019-05-29T00:22:06.242Z,100.00
2019-05-29T00:24:34.040Z,100.00
2019-05-29T00:27:01.827Z,100.00
2019-05-29T00:29:29.657Z,100.00
2019-05-29T00:31:57.353Z,100.00
2019-05-29T00:34:28.599Z,99.84
2019-05-29T00:36:56.410Z,99.93
2019-05-29T00:39:24.214Z,100.00
2019-05-29T00:41:51.935Z,100.00
2019-05-29T00:44:33.547Z,100.00
2019-05-29T00:46:49.266Z,100.00
2019-05-29T00:49:18.061Z,100.00
2019-05-29T00:51:45.982Z,100.00
2019-05-29T00:54:14.470Z,100.00
2019-05-29T00:56:42.344Z,100.00
2019-05-29T00:59:11.076Z,100.00
2019-05-29T01:01:38.920Z,98.97
2019-05-29T01:04:07.582Z,98.93
2019-05-29T01:06:35.284Z,98.93
2019-05-29T01:09:03.995Z,98.98
2019-05-29T01:11:32.501Z,98.82
2019-05-29T01:14:00.284Z,98.61
2019-05-29T01:16:27.987Z,98.50
2019-05-29T01:18:57.901Z,98.71
2019-05-29T01:21:25.839Z,98.58
2019-05-29T01:23:54.656Z,98.12
2019-05-29T01:26:22.833Z,98.24
2019-05-29T01:28:50.677Z,98.23
2019-05-29T01:31:19.377Z,98.26
2019-05-29T01:33:47.202Z,98.27
2019-05-29T01:36:27.084Z,98.27
2019-05-29T01:38:54.825Z,97.74
2019-05-29T01:41:23.546Z,97.75
2019-05-29T01:43:51.366Z,97.75
2019-05-29T01:46:19.508Z,98.47
2019-05-29T01:48:47.337Z,98.47
2019-05-29T01:51:15.423Z,98.49
2019-05-29T01:53:43.590Z,98.45
2019-05-29T01:56:11.368Z,98.45
2019-05-29T01:58:39.361Z,98.87
2019-05-29T02:01:07.199Z,98.12
2019-05-29T02:03:34.903Z,98.12
2019-05-29T02:06:02.631Z,98.04
2019-05-29T02:08:30.341Z,98.65
2019-05-29T02:10:58.101Z,98.65
2019-05-29T02:13:26.000Z,98.12
2019-05-29T02:15:53.744Z,97.95
2019-05-29T02:18:21.445Z,98.73
2019-05-29T02:20:49.351Z,98.32
2019-05-29T02:23:17.779Z,98.30
2019-05-29T02:25:46.642Z,98.30
2019-05-29T02:28:14.835Z,100.00
2019-05-29T02:30:42.622Z,99.94
2019-05-29T02:33:10.429Z,99.94
2019-05-29T02:35:38.280Z,100.00
2019-05-29T02:38:06.214Z,100.00
2019-05-29T02:40:33.994Z,100.00
2019-05-29T02:43:01.722Z,100.00
2019-05-29T02:45:52.083Z,100.00
2019-05-29T02:47:59.345Z,100.00
2019-05-29T02:50:28.817Z,100.00
2019-05-29T02:52:56.768Z,100.00
2019-05-29T02:55:24.631Z,100.00
2019-05-29T02:57:52.550Z,100.00
2019-05-29T03:00:25.733Z,100.00
2019-05-29T03:02:54.039Z,100.00
2019-05-29T03:05:22.028Z,100.00
2019-05-29T03:07:49.997Z,100.00
2019-05-29T03:10:18.605Z,99.94
2019-05-29T03:12:46.453Z,99.10
2019-05-29T03:15:14.315Z,97.78
2019-05-29T03:17:42.052Z,97.78
2019-05-29T03:20:09.804Z,97.85
2019-05-29T03:22:37.572Z,97.48
2019-05-29T03:25:06.380Z,97.00
2019-05-29T03:27:34.123Z,97.00
2019-05-29T03:30:01.929Z,96.86
2019-05-29T03:32:32.426Z,96.61
2019-05-29T03:34:59.291Z,96.61
2019-05-29T03:37:28.219Z,96.23
2019-05-29T03:39:56.058Z,95.71
2019-05-29T03:42:24.325Z,95.91
2019-05-29T03:44:52.016Z,96.01
2019-05-29T03:47:19.799Z,95.42
2019-05-29T03:49:47.513Z,95.42
2019-05-29T03:52:15.239Z,94.07
2019-05-29T03:54:42.925Z,94.07
2019-05-29T03:57:10.662Z,94.10
2019-05-29T03:59:38.466Z,94.10
2019-05-29T04:02:06.196Z,93.68
2019-05-29T04:04:35.701Z,92.61
2019-05-29T04:07:23.624Z,92.61
2019-05-29T04:09:51.393Z,93.02
2019-05-29T04:12:19.496Z,91.70
2019-05-29T04:14:48.000Z,91.70
2019-05-29T04:17:18.638Z,91.85
2019-05-29T04:19:47.045Z,90.81
2019-05-29T04:22:18.401Z,90.81
2019-05-29T04:24:47.396Z,90.18
2019-05-29T04:27:18.817Z,89.46
2019-05-29T04:29:47.537Z,90.12
2019-05-29T04:32:16.133Z,88.32
2019-05-29T04:34:43.905Z,88.32
2019-05-29T04:37:11.607Z,89.07
2019-05-29T04:39:39.358Z,88.79
2019-05-29T04:42:07.161Z,88.47
2019-05-29T04:44:36.246Z,88.47
2019-05-29T04:47:11.099Z,88.24
2019-05-29T04:49:36.158Z,88.47
2019-05-29T04:52:04.286Z,88.47
2019-05-29T04:54:33.368Z,88.65
2019-05-29T04:57:01.147Z,88.01
2019-05-29T04:59:28.907Z,87.66
2019-05-29T05:01:56.591Z,87.19
2019-05-29T05:04:24.332Z,86.57
2019-05-29T05:06:52.199Z,86.27
2019-05-29T05:09:19.939Z,86.79
2019-05-29T05:11:47.882Z,86.79
2019-05-29T05:14:15.811Z,85.11
2019-05-29T05:16:44.681Z,85.98
2019-05-29T05:19:12.505Z,85.67
2019-05-29T05:21:40.360Z,85.56
2019-05-29T05:24:08.160Z,85.37
2019-05-29T05:26:36.306Z,84.76
2019-05-29T05:29:04.393Z,84.76
2019-05-29T05:31:32.401Z,85.66
2019-05-29T05:34:00.356Z,85.38
2019-05-29T05:36:28.086Z,84.24
2019-05-29T05:38:55.817Z,84.24
2019-05-29T05:41:23.652Z,84.15
2019-05-29T05:43:51.380Z,83.25
2019-05-29T05:46:19.075Z,84.28
2019-05-29T05:48:49.143Z,84.17
2019-05-29T05:51:16.944Z,82.84
2019-05-29T05:53:44.666Z,83.49
2019-05-29T05:56:12.454Z,82.83
2019-05-29T05:58:40.310Z,83.13
2019-05-29T06:01:08.053Z,82.91
2019-05-29T06:03:36.263Z,82.91
2019-05-29T06:06:05.291Z,82.76
2019-05-29T06:08:34.047Z,82.93
2019-05-29T06:11:02.081Z,82.93
2019-05-29T06:13:29.987Z,82.16
2019-05-29T06:15:57.857Z,81.92
2019-05-29T06:18:26.067Z,81.50
2019-05-29T06:20:53.816Z,81.12
2019-05-29T06:23:21.631Z,81.90
2019-05-29T06:25:50.486Z,80.73
2019-05-29T06:28:18.245Z,81.50
2019-05-29T06:30:46.018Z,81.49
2019-05-29T06:33:13.716Z,81.49
2019-05-29T06:35:41.745Z,81.37
2019-05-29T06:38:10.838Z,82.08
2019-05-29T06:40:40.327Z,81.49
2019-05-29T06:43:19.629Z,79.98
2019-05-29T06:45:47.571Z,79.98
2019-05-29T06:48:40.517Z,79.44
2019-05-29T06:50:57.130Z,80.57
2019-05-29T06:53:22.995Z,80.57
2019-05-29T06:55:54.232Z,77.34
2019-05-29T06:58:20.737Z,77.34
2019-05-29T07:00:48.562Z,76.49
2019-05-29T07:03:16.469Z,77.77
2019-05-29T07:05:50.613Z,77.42
2019-05-29T07:08:20.912Z,77.45
2019-05-29T07:10:44.604Z,75.03
2019-05-29T07:13:12.401Z,75.91
2019-05-29T07:15:40.775Z,73.52
2019-05-29T07:18:08.564Z,75.57
2019-05-29T07:20:36.561Z,74.52
2019-05-29T07:23:04.601Z,73.52
2019-05-29T07:25:32.457Z,73.52
2019-05-29T07:28:00.276Z,72.70
2019-05-29T07:30:30.163Z,72.55
2019-05-29T07:32:59.246Z,71.15
2019-05-29T07:35:27.046Z,71.15
2019-05-29T07:37:54.896Z,70.43
2019-05-29T07:40:22.730Z,69.79
2019-05-29T07:42:56.093Z,69.79
2019-05-29T07:45:20.383Z,69.45
2019-05-29T07:47:48.568Z,69.45
2019-05-29T07:52:25.187Z,71.98
2019-05-29T07:54:53.586Z,66.77
2019-05-29T07:57:21.449Z,66.62
2019-05-29T07:59:49.149Z,66.62
2019-05-29T08:02:17.020Z,68.01
2019-05-29T08:04:45.159Z,67.64
2019-05-29T08:07:13.203Z,67.19
2019-05-29T08:09:41.372Z,66.27
2019-05-29T08:12:09.259Z,65.96
2019-05-29T08:14:37.578Z,64.46
2019-05-29T08:17:05.615Z,65.35
2019-05-29T08:19:33.398Z,65.35
2019-05-29T08:22:01.253Z,67.23
2019-05-29T08:24:35.594Z,65.38
2019-05-29T08:27:03.507Z,64.03
2019-05-29T08:29:31.197Z,64.47
2019-05-29T08:31:59.001Z,63.73
2019-05-29T08:34:26.667Z,63.73
2019-05-29T08:37:04.841Z,63.50
2019-05-29T08:39:35.448Z,62.83
2019-05-29T08:42:21.010Z,61.36
2019-05-29T08:44:25.657Z,62.15
2019-05-29T08:47:08.526Z,60.88
2019-05-29T08:49:23.008Z,61.11
2019-05-29T08:51:52.295Z,57.92
2019-05-29T08:54:24.050Z,59.26
2019-05-29T08:56:50.398Z,60.16
2019-05-29T08:59:18.197Z,59.71
2019-05-29T09:01:47.677Z,56.78
2019-05-29T09:04:15.669Z,56.16
2019-05-29T09:06:44.662Z,57.69
2019-05-29T09:09:12.516Z,57.76
2019-05-29T09:11:40.360Z,58.61
2019-05-29T09:14:08.177Z,60.90
2019-05-29T09:16:35.936Z,58.64
2019-05-29T09:19:04.098Z,52.51
2019-05-29T09:21:31.876Z,52.92
2019-05-29T09:23:59.642Z,53.58
2019-05-29T09:26:27.651Z,53.34
2019-05-29T09:28:55.396Z,53.85
2019-05-29T09:31:23.937Z,54.49
2019-05-29T09:33:51.856Z,53.78
2019-05-29T09:36:20.681Z,52.37
2019-05-29T09:38:48.864Z,52.49
2019-05-29T09:41:17.389Z,51.48
2019-05-29T09:43:58.388Z,49.47
2019-05-29T09:46:15.161Z,49.59
2019-05-29T09:48:49.743Z,48.66
2019-05-29T09:51:21.226Z,49.27
2019-05-29T09:53:43.834Z,49.22
2019-05-29T09:56:11.687Z,47.61
2019-05-29T09:58:39.433Z,49.41
2019-05-29T10:01:22.359Z,50.60
2019-05-29T10:03:38.136Z,49.60
2019-05-29T10:06:09.204Z,49.60
2019-05-29T10:08:35.729Z,48.70
2019-05-29T10:11:08.431Z,51.68
2019-05-29T10:13:33.349Z,51.22
2019-05-29T10:16:02.746Z,49.63
2019-05-29T10:18:32.659Z,50.10
2019-05-29T10:21:01.265Z,50.26
2019-05-29T10:23:29.296Z,51.02
2019-05-29T10:25:58.840Z,50.45
2019-05-29T10:28:27.326Z,50.07
2019-05-29T10:30:55.002Z,50.68
2019-05-29T10:33:22.790Z,51.62
2019-05-29T10:35:53.300Z,48.88
2019-05-29T10:38:20.321Z,48.54
2019-05-29T10:41:02.377Z,49.78
2019-05-29T10:43:33.168Z,49.45
2019-05-29T10:45:49.756Z,48.17
2019-05-29T10:48:17.720Z,48.30
2019-05-29T10:50:49.188Z,49.38
2019-05-29T10:53:15.472Z,50.18
2019-05-29T10:55:44.431Z,49.62
2019-05-29T10:58:12.425Z,49.66
2019-05-29T11:00:40.132Z,50.46
2019-05-29T11:03:08.440Z,51.02
2019-05-29T11:05:37.309Z,50.87
2019-05-29T11:08:05.156Z,49.75
2019-05-29T11:10:32.878Z,50.67
2019-05-29T11:13:00.625Z,51.87
2019-05-29T11:15:28.620Z,51.69
2019-05-29T11:17:57.413Z,48.77
2019-05-29T11:20:25.983Z,48.77
2019-05-29T11:22:53.814Z,48.27
2019-05-29T11:25:27.198Z,47.92
2019-05-29T11:27:53.041Z,49.24
2019-05-29T11:30:21.179Z,50.86
2019-05-29T11:32:51.039Z,50.70
2019-05-29T11:35:19.436Z,49.99
2019-05-29T11:37:50.449Z,48.75
2019-05-29T11:40:19.341Z,48.69
2019-05-29T11:42:47.243Z,49.94
2019-05-29T11:45:15.444Z,48.96
2019-05-29T11:47:43.311Z,49.65
2019-05-29T11:50:19.031Z,48.68
2019-05-29T11:52:43.285Z,48.85
2019-05-29T11:55:11.761Z,49.06
2019-05-29T11:57:40.055Z,47.41
2019-05-29T12:00:19.062Z,48.06
2019-05-29T12:02:38.924Z,47.13
2019-05-29T12:05:08.278Z,49.14
2019-05-29T12:07:36.029Z,49.06
2019-05-29T12:10:07.267Z,47.46
2019-05-29T12:12:35.500Z,48.86
2019-05-29T12:15:11.083Z,48.32
2019-05-29T12:17:33.966Z,47.53
2019-05-29T12:20:04.021Z,48.49
2019-05-29T12:22:31.594Z,47.24
2019-05-29T12:25:00.658Z,44.45
2019-05-29T12:27:28.761Z,45.01
2019-05-29T12:29:56.708Z,46.08
2019-05-29T12:32:25.198Z,44.14
2019-05-29T12:34:55.298Z,44.29
2019-05-29T12:37:22.499Z,45.41
2019-05-29T12:39:50.241Z,46.06
2019-05-29T12:42:18.033Z,45.97
2019-05-29T12:44:45.871Z,44.77
2019-05-29T12:47:13.543Z,46.68
2019-05-29T12:49:41.270Z,45.89
2019-05-29T12:52:10.320Z,43.73
2019-05-29T12:54:38.314Z,43.88
2019-05-29T12:57:06.084Z,45.21
2019-05-29T12:59:33.946Z,44.38
2019-05-29T13:02:02.670Z,42.91
2019-05-29T13:04:30.667Z,43.48
2019-05-29T13:06:58.683Z,42.86
2019-05-29T13:09:27.112Z,43.07
2019-05-29T13:12:05.691Z,42.75
2019-05-29T13:14:33.933Z,44.29
2019-05-29T13:17:02.926Z,44.19
2019-05-29T13:19:30.881Z,45.42
2019-05-29T13:21:59.335Z,45.82
2019-05-29T13:24:27.093Z,46.02
2019-05-29T13:26:55.469Z,45.01
2019-05-29T13:29:23.368Z,43.70
2019-05-29T13:31:55.386Z,44.64
2019-05-29T13:34:20.722Z,44.67
2019-05-29T13:36:48.515Z,43.35
2019-05-29T13:39:16.336Z,43.75
2019-05-29T13:41:44.087Z,43.84
2019-05-29T13:44:11.830Z,42.98
2019-05-29T13:46:39.517Z,43.23
2019-05-29T13:49:07.369Z,43.74
2019-05-29T13:51:35.131Z,45.22
2019-05-29T13:54:11.111Z,45.15
2019-05-29T13:56:32.773Z,44.65
2019-05-29T13:59:01.936Z,44.96
2019-05-29T14:01:30.221Z,43.87
2019-05-29T14:03:58.219Z,43.40
2019-05-29T14:06:25.998Z,40.32
2019-05-29T14:08:54.080Z,39.87
2019-05-29T14:11:22.091Z,39.99
2019-05-29T14:13:49.783Z,41.46
2019-05-29T14:16:17.613Z,42.87
2019-05-29T14:18:45.524Z,42.85
2019-05-29T14:21:13.683Z,41.24
2019-05-29T14:23:41.532Z,43.25
2019-05-29T14:26:09.851Z,42.67
2019-05-29T14:28:37.570Z,42.66
2019-05-29T14:31:05.994Z,41.16
2019-05-29T14:33:33.870Z,40.35
2019-05-29T14:36:01.613Z,42.48
2019-05-29T14:38:29.341Z,42.89
2019-05-29T14:40:57.081Z,44.23
2019-05-29T14:43:24.769Z,44.35
2019-05-29T14:45:52.509Z,45.60
2019-05-29T14:48:20.236Z,46.34
2019-05-29T14:50:48.802Z,44.89
2019-05-29T14:53:16.556Z,46.80
2019-05-29T14:55:44.452Z,46.47
2019-05-29T14:58:12.265Z,45.83
2019-05-29T15:00:40.124Z,44.53
2019-05-29T15:03:09.273Z,43.77
2019-05-29T15:05:37.214Z,42.61
2019-05-29T15:08:05.808Z,42.68
2019-05-29T15:10:33.865Z,43.56
2019-05-29T15:13:01.563Z,45.11
2019-05-29T15:15:30.349Z,45.81
2019-05-29T15:17:58.026Z,45.83
2019-05-29T15:20:26.060Z,46.17
2019-05-29T15:22:53.783Z,45.32
2019-05-29T15:25:24.362Z,45.99
2019-05-29T15:27:51.699Z,46.23
2019-05-29T15:30:22.997Z,46.37
2019-05-29T15:32:49.813Z,47.23
2019-05-29T15:35:19.977Z,48.24
2019-05-29T15:37:48.308Z,47.90
2019-05-29T15:40:17.149Z,47.95
2019-05-29T15:42:45.448Z,47.57
2019-05-29T15:45:14.042Z,46.88
2019-05-29T15:47:42.050Z,46.98
2019-05-29T15:50:11.562Z,46.45
2019-05-29T15:52:39.829Z,45.72
2019-05-29T15:55:21.314Z,45.72
2019-05-29T15:57:37.981Z,45.25
2019-05-29T16:00:07.073Z,46.46
2019-05-29T16:02:34.895Z,46.26
2019-05-29T16:05:03.233Z,46.46
2019-05-29T16:07:30.959Z,47.55
2019-05-29T16:09:58.888Z,47.03
2019-05-29T16:12:30.684Z,47.44
2019-05-29T16:14:56.295Z,50.14
2019-05-29T16:17:24.117Z,48.13
2019-05-29T16:19:51.851Z,47.29
2019-05-29T16:22:20.133Z,47.94
2019-05-29T16:24:47.807Z,47.84
2019-05-29T16:27:16.104Z,47.19
2019-05-29T16:29:43.882Z,47.86
2019-05-29T16:32:11.670Z,48.23
2019-05-29T16:34:39.446Z,48.36
2019-05-29T16:37:07.200Z,48.60
2019-05-29T16:39:35.177Z,48.62
2019-05-29T16:42:03.258Z,48.15
2019-05-29T16:44:30.940Z,47.98
2019-05-29T16:46:59.218Z,47.17
2019-05-29T16:49:29.389Z,46.98
2019-05-29T16:51:57.306Z,47.00
2019-05-29T16:54:25.161Z,47.20
2019-05-29T16:56:52.978Z,47.59
2019-05-29T16:59:21.418Z,47.86
2019-05-29T17:01:50.349Z,46.89
2019-05-29T17:04:19.635Z,48.12
2019-05-29T17:06:47.487Z,47.50
2019-05-29T17:09:16.322Z,47.57
2019-05-29T17:11:44.178Z,47.17
2019-05-29T17:14:11.904Z,47.81
2019-05-29T17:16:39.634Z,48.24
2019-05-29T17:19:08.161Z,49.36
2019-05-29T17:21:35.910Z,49.53
2019-05-29T17:24:03.843Z,49.50
2019-05-29T17:26:31.631Z,49.25
2019-05-29T17:28:59.452Z,50.49
2019-05-29T17:31:27.639Z,49.91
2019-05-29T17:33:55.703Z,49.23
2019-05-29T17:36:28.185Z,48.85
2019-05-29T17:38:53.734Z,48.96
2019-05-29T17:41:21.532Z,49.70
2019-05-29T17:43:49.999Z,49.54
2019-05-29T17:46:19.508Z,49.11
2019-05-29T17:48:47.478Z,49.76
2019-05-29T17:51:17.600Z,49.71
2019-05-29T17:53:47.029Z,50.08
2019-05-29T17:56:26.370Z,49.77
2019-05-29T17:58:44.806Z,49.90
2019-05-29T18:01:12.711Z,49.81
2019-05-29T18:03:40.570Z,50.16
2019-05-29T18:06:08.355Z,50.05
2019-05-29T18:08:36.504Z,50.17
2019-05-29T18:11:04.431Z,49.90
2019-05-29T18:13:32.431Z,50.07
2019-05-29T18:16:00.345Z,50.48
2019-05-29T18:18:28.092Z,50.40
2019-05-29T18:20:58.254Z,50.62
2019-05-29T18:23:26.561Z,50.92
2019-05-29T18:25:54.260Z,51.23
2019-05-29T18:28:22.130Z,51.83
2019-05-29T18:30:50.023Z,51.54
2019-05-29T18:33:18.639Z,51.43
2019-05-29T18:35:46.461Z,51.54
2019-05-29T18:38:14.506Z,51.70
2019-05-29T18:40:42.433Z,51.82
2019-05-29T18:43:10.311Z,51.87
2019-05-29T18:45:38.126Z,51.95
2019-05-29T18:48:06.095Z,51.97
2019-05-29T18:50:33.912Z,52.18
2019-05-29T18:53:01.761Z,52.17
2019-05-29T18:55:29.697Z,52.20
2019-05-29T18:57:57.600Z,52.27
2019-05-29T19:00:25.461Z,52.36
2019-05-29T19:02:53.324Z,52.46
2019-05-29T19:05:21.546Z,53.02
2019-05-29T19:07:49.339Z,53.37
2019-05-29T19:10:17.313Z,53.53
2019-05-29T19:12:45.101Z,53.64
2019-05-29T19:15:13.331Z,53.56
2019-05-29T19:17:41.128Z,53.42
2019-05-29T19:20:09.297Z,53.49
2019-05-29T19:22:37.022Z,53.69
2019-05-29T19:25:07.590Z,53.84
2019-05-29T19:27:41.351Z,54.17
2019-05-29T19:30:05.974Z,54.41
2019-05-29T19:32:35.784Z,54.95
2019-05-29T19:35:04.495Z,55.59
2019-05-29T19:37:32.234Z,55.85
2019-05-29T19:39:59.958Z,56.41
2019-05-29T19:42:28.143Z,56.90
2019-05-29T19:44:56.174Z,57.36
2019-05-29T19:47:24.630Z,57.58
2019-05-29T19:49:52.641Z,57.43
2019-05-29T19:52:20.557Z,57.57
2019-05-29T19:54:48.374Z,57.48
2019-05-29T19:57:16.945Z,57.48
2019-05-29T19:59:44.701Z,57.76
2019-05-29T20:02:12.597Z,57.76
2019-05-29T20:04:40.463Z,57.73
2019-05-29T20:07:08.281Z,57.74
2019-05-29T20:09:37.476Z,57.70
2019-05-29T20:12:05.564Z,57.77
2019-05-29T20:14:33.791Z,57.79
2019-05-29T20:17:01.738Z,57.89
2019-05-29T20:19:34.176Z,58.03
2019-05-29T20:21:59.442Z,58.14
2019-05-29T20:24:28.645Z,58.20
2019-05-29T20:26:56.703Z,58.37
2019-05-29T20:29:24.620Z,58.42
2019-05-29T20:31:52.474Z,58.56
2019-05-29T20:34:20.144Z,58.70
2019-05-29T20:36:48.580Z,58.80
2019-05-29T20:39:16.262Z,58.88
2019-05-29T20:41:43.966Z,58.93
2019-05-29T20:44:11.746Z,58.98
2019-05-29T20:46:39.600Z,59.10
2019-05-29T20:49:07.391Z,61.02
2019-05-29T20:51:36.171Z,61.31
2019-05-29T20:54:04.352Z,59.75
2019-05-29T20:56:32.143Z,59.40
2019-05-29T20:59:09.077Z,59.30
2019-05-29T21:01:43.030Z,59.33
2019-05-29T21:04:06.732Z,59.41
2019-05-29T21:06:34.641Z,59.83
2019-05-29T21:09:02.484Z,59.83
2019-05-29T21:11:30.240Z,59.75
2019-05-29T21:13:58.318Z,59.93
2019-05-29T21:16:26.087Z,60.03
2019-05-29T21:18:53.782Z,60.12
2019-05-29T21:21:21.578Z,60.17
2019-05-29T21:23:49.680Z,60.24
2019-05-29T21:26:18.386Z,60.29
2019-05-29T21:28:50.437Z,60.33
2019-05-29T21:31:15.901Z,60.47
2019-05-29T21:33:47.346Z,60.56
2019-05-29T21:36:14.632Z,61.29
2019-05-29T21:38:42.376Z,61.29
2019-05-29T21:41:10.221Z,60.92
2019-05-29T21:43:38.627Z,60.98
2019-05-29T21:46:06.491Z,60.98
2019-05-29T21:48:34.614Z,61.21
2019-05-29T21:51:02.395Z,61.25
2019-05-29T21:53:30.208Z,61.34
2019-05-29T21:55:58.468Z,61.43
2019-05-29T21:58:26.273Z,61.45
2019-05-29T22:00:54.871Z,61.57
2019-05-29T22:03:22.763Z,61.82
2019-05-29T22:05:50.568Z,61.82
2019-05-29T22:08:18.513Z,62.11
2019-05-29T22:10:46.204Z,61.97
2019-05-29T22:13:14.079Z,61.97
2019-05-29T22:15:42.015Z,62.05
2019-05-29T22:18:09.823Z,62.18
2019-05-29T22:20:37.734Z,62.39
2019-05-29T22:23:05.647Z,62.45
2019-05-29T22:25:34.546Z,62.62
2019-05-29T22:28:03.104Z,62.87
2019-05-29T22:30:31.020Z,63.18
2019-05-29T22:32:59.589Z,63.18
2019-05-29T22:35:27.638Z,63.27
2019-05-29T22:37:55.762Z,63.63
2019-05-29T22:40:23.583Z,63.63
2019-05-29T22:42:51.437Z,63.92
2019-05-29T22:45:19.456Z,64.00
2019-05-29T22:47:47.217Z,64.00
2019-05-29T22:50:15.029Z,64.06
2019-05-29T22:52:42.801Z,64.27
2019-05-29T22:55:10.905Z,64.71
2019-05-29T22:57:38.847Z,64.71
2019-05-29T23:00:07.658Z,64.85
2019-05-29T23:02:35.499Z,64.89
2019-05-29T23:05:03.990Z,65.11
2019-05-29T23:07:31.782Z,65.11
2019-05-29T23:10:00.629Z,65.26
2019-05-29T23:12:28.560Z,65.39
2019-05-29T23:14:56.395Z,65.60
2019-05-29T23:17:24.107Z,65.75
2019-05-29T23:19:52.444Z,66.06
2019-05-29T23:22:24.217Z,66.19
2019-05-29T23:24:50.265Z,66.32
2019-05-29T23:27:18.868Z,66.32
2019-05-29T23:29:49.231Z,66.43
2019-05-29T23:32:16.239Z,66.51
2019-05-29T23:34:55.556Z,66.67
2019-05-29T23:37:23.377Z,66.88
2019-05-29T23:39:53.003Z,67.08
2019-05-29T23:42:21.081Z,67.21
2019-05-29T23:44:51.977Z,67.13
2019-05-29T23:47:18.536Z,67.22
2019-05-29T23:49:46.303Z,67.32
2019-05-29T23:52:14.328Z,67.65
2019-05-29T23:54:42.615Z,67.56
2019-05-29T23:57:10.409Z,67.70
2019-05-29T23:59:38.591Z,67.70
